Time;durP1;ratioP1;P1;durP2;ratioP2;P2;SDS_P1;SDS_P2;PMS_P1;PMS_P2;Temp;Humidity;BMP_temperature;BMP_pressure;BME280_temperature;BME280_humidity;BME280_pressure;Samples;Min_cycle;Max_cycle;Signal;HPM_P1;HPM_P2
2022/06/14 00:03:08;;;;;;;0.82;0.80;;;13.00;67.70;;;;;;639981;224;26527;-67
2022/06/14 00:05:36;;;;;;;1.50;0.70;;;13.00;66.20;;;;;;638716;225;26572;-67
2022/06/14 00:08:04;;;;;;;1.40;0.77;;;12.90;66.40;;;;;;638317;225;26813;-67
2022/06/14 00:10:31;;;;;;;1.40;0.80;;;12.80;65.90;;;;;;638100;225;26515;-67
2022/06/14 00:12:58;;;;;;;1.08;0.90;;;12.80;65.90;;;;;;638096;225;26744;-67
2022/06/14 00:15:25;;;;;;;0.93;0.80;;;12.80;65.50;;;;;;638099;224;26515;-67
2022/06/14 00:17:53;;;;;;;1.27;0.88;;;12.80;65.50;;;;;;637860;223;26750;-67
2022/06/14 00:20:20;;;;;;;1.65;0.90;;;12.70;65.40;;;;;;637684;224;26593;-67
2022/06/14 00:22:48;;;;;;;1.62;0.90;;;12.80;65.10;;;;;;637682;224;26571;-67
2022/06/14 00:25:21;;;;;;;2.47;0.82;;;12.80;64.70;;;;;;637694;224;26568;-66
2022/06/14 00:27:49;;;;;;;0.80;0.80;;;12.70;64.50;;;;;;637513;225;26656;-66
2022/06/14 00:30:16;;;;;;;1.42;1.05;;;12.80;64.10;;;;;;637595;225;26835;-66
2022/06/14 00:32:43;;;;;;;1.12;1.00;;;12.80;63.80;;;;;;637647;225;26571;-66
2022/06/14 00:35:10;;;;;;;2.40;0.90;;;12.80;63.60;;;;;;637691;225;26781;-66
2022/06/14 00:37:37;;;;;;;1.05;0.77;;;12.70;63.50;;;;;;637320;225;26532;-66
2022/06/14 00:40:06;;;;;;;1.75;1.00;;;12.70;63.40;;;;;;637383;225;26809;-66
2022/06/14 00:42:33;;;;;;;2.30;1.10;;;12.60;63.50;;;;;;637394;225;26525;-66
2022/06/14 00:45:04;;;;;;;1.95;1.00;;;12.60;63.70;;;;;;637389;226;26740;-66
2022/06/14 00:47:33;;;;;;;1.95;0.80;;;12.50;63.70;;;;;;637129;225;26752;-66
2022/06/14 00:50:00;;;;;;;2.00;0.80;;;12.40;64.00;;;;;;637124;225;26530;-66
2022/06/14 00:52:42;;;;;;;1.08;0.80;;;12.30;64.00;;;;;;637401;225;26787;-66
2022/06/14 00:55:14;;;;;;;0.70;0.70;;;12.20;63.80;;;;;;637268;225;26513;-66
2022/06/14 00:57:42;;;;;;;1.35;0.95;;;12.20;64.10;;;;;;637195;225;26541;-66
2022/06/14 01:00:12;;;;;;;1.02;0.88;;;12.10;63.80;;;;;;637263;225;26786;-67
2022/06/14 01:02:40;;;;;;;1.20;0.90;;;12.10;63.90;;;;;;637331;225;26520;-66
2022/06/14 01:05:08;;;;;;;1.10;0.82;;;12.00;64.20;;;;;;636958;226;26782;-66
2022/06/14 01:07:36;;;;;;;1.10;0.98;;;12.00;63.50;;;;;;637159;225;26504;-67
2022/06/14 01:10:05;;;;;;;0.70;0.70;;;12.00;63.30;;;;;;637107;225;26737;-66
2022/06/14 01:12:32;;;;;;;1.37;1.00;;;12.00;63.40;;;;;;638537;223;26572;-66
2022/06/14 01:15:07;;;;;;;1.65;1.08;;;11.90;63.50;;;;;;638589;224;26851;-66
2022/06/14 01:17:35;;;;;;;1.52;0.98;;;11.90;63.60;;;;;;638046;223;26549;-66
2022/06/14 01:20:03;;;;;;;0.85;0.82;;;11.80;63.50;;;;;;638245;224;26565;-67
2022/06/14 01:22:30;;;;;;;2.42;0.80;;;11.80;63.80;;;;;;637984;225;26480;-67
2022/06/14 01:24:57;;;;;;;1.40;1.15;;;11.80;63.90;;;;;;637951;225;26743;-66
2022/06/14 01:27:24;;;;;;;1.52;0.90;;;11.70;64.10;;;;;;637872;223;26499;-66
2022/06/14 01:29:52;;;;;;;1.55;1.00;;;11.60;64.20;;;;;;637841;225;26786;-66
2022/06/14 01:32:19;;;;;;;1.12;0.82;;;11.60;64.50;;;;;;637079;225;26537;-66
2022/06/14 01:34:48;;;;;;;1.00;0.80;;;11.60;64.60;;;;;;637522;225;26786;-66
2022/06/14 01:37:16;;;;;;;1.62;1.17;;;11.50;64.90;;;;;;637311;225;26555;-67
2022/06/14 01:39:43;;;;;;;1.40;0.82;;;11.50;64.80;;;;;;637643;225;26532;-66
2022/06/14 01:42:18;;;;;;;2.37;1.10;;;11.50;65.00;;;;;;637701;225;26552;-66
2022/06/14 01:44:46;;;;;;;1.33;1.10;;;11.50;65.10;;;;;;637086;225;26578;-66
2022/06/14 01:47:31;;;;;;;1.23;0.80;;;11.50;65.20;;;;;;637156;225;27123;-67
2022/06/14 01:52:39;;;;;;;0.60;0.60;;;11.40;65.70;;;;;;637766;225;26491;-66
2022/06/14 01:55:26;;;;;;;2.67;1.30;;;11.40;65.70;;;;;;636670;225;26723;-67
2022/06/14 01:58:09;;;;;;;1.17;0.95;;;11.40;65.90;;;;;;636343;226;26510;-67
2022/06/14 02:00:38;;;;;;;4.00;1.10;;;11.40;66.10;;;;;;637272;225;26938;-66
2022/06/14 02:05:57;;;;;;;0.95;0.80;;;11.30;66.40;;;;;;637735;224;26476;-66
2022/06/14 02:08:24;;;;;;;2.55;1.20;;;11.30;66.80;;;;;;636984;225;26766;-66
2022/06/14 02:10:54;;;;;;;0.90;0.80;;;11.30;66.90;;;;;;636942;225;26509;-66
2022/06/14 02:13:22;;;;;;;1.23;1.10;;;11.20;67.00;;;;;;636753;226;26515;-66
2022/06/14 02:15:53;;;;;;;2.22;1.27;;;11.20;67.20;;;;;;636759;225;26537;-66
2022/06/14 02:18:26;;;;;;;2.28;1.10;;;11.20;67.30;;;;;;637040;225;27200;-66
2022/06/14 02:20:54;;;;;;;1.83;0.90;;;11.10;67.50;;;;;;637108;225;26516;-66
2022/06/14 02:23:21;;;;;;;1.23;1.00;;;11.10;67.70;;;;;;637530;223;26821;-66
2022/06/14 02:25:50;;;;;;;1.40;0.93;;;11.10;68.00;;;;;;638867;225;26566;-66
2022/06/14 02:28:20;;;;;;;1.62;1.02;;;11.00;68.20;;;;;;638277;224;26531;-66
2022/06/14 02:30:49;;;;;;;1.37;1.00;;;11.00;68.50;;;;;;638171;224;26592;-66
2022/06/14 02:33:20;;;;;;;1.12;0.95;;;11.00;68.70;;;;;;637675;224;26769;-66
2022/06/14 02:35:51;;;;;;;0.82;0.75;;;11.00;69.50;;;;;;637946;224;26527;-66
2022/06/14 02:38:22;;;;;;;3.70;1.25;;;10.90;69.30;;;;;;637898;224;26547;-66
2022/06/14 02:40:50;;;;;;;1.10;1.00;;;11.00;69.30;;;;;;637595;224;26736;-66
2022/06/14 02:43:21;;;;;;;1.50;1.00;;;10.90;69.60;;;;;;637261;225;26566;-66
2022/06/14 02:45:50;;;;;;;0.85;0.85;;;10.90;70.10;;;;;;637585;225;26599;-66
2022/06/14 02:48:28;;;;;;;2.25;1.37;;;10.90;70.10;;;;;;637382;224;26824;-66
2022/06/14 02:51:00;;;;;;;1.70;1.08;;;10.90;70.40;;;;;;637477;225;26651;-66
2022/06/14 02:53:28;;;;;;;1.83;1.00;;;10.90;70.60;;;;;;637541;225;26577;-67
2022/06/14 02:56:13;;;;;;;2.53;1.10;;;10.90;71.50;;;;;;637393;225;26898;-66
2022/06/14 02:58:53;;;;;;;1.62;1.23;;;10.80;71.10;;;;;;636224;225;26910;-66
2022/06/14 03:01:24;;;;;;;2.67;1.05;;;10.80;72.30;;;;;;637325;226;26768;-66
2022/06/14 03:03:54;;;;;;;1.45;1.00;;;10.80;71.70;;;;;;637088;225;26511;-66
2022/06/14 03:06:37;;;;;;;2.25;1.10;;;10.90;71.90;;;;;;637160;225;26556;-67
2022/06/14 03:09:07;;;;;;;2.58;0.98;;;10.90;71.90;;;;;;636891;225;26548;-67
2022/06/14 03:12:09;;;;;;;1.10;1.00;;;10.90;72.00;;;;;;637040;225;26756;-66
2022/06/14 03:14:55;;;;;;;2.05;0.98;;;11.00;72.10;;;;;;623954;221;26606;-69
2022/06/14 03:17:46;;;;;;;2.12;1.10;;;11.00;72.10;;;;;;649856;221;26532;-68
2022/06/14 03:20:11;;;;;;;3.37;1.00;;;11.00;72.20;;;;;;640871;221;26774;-68
2022/06/14 03:23:12;;;;;;;1.70;0.90;;;11.00;72.40;;;;;;649889;221;26786;-68
2022/06/14 03:25:40;;;;;;;1.50;1.20;;;11.00;72.60;;;;;;647270;221;26554;-68
2022/06/14 03:28:08;;;;;;;1.55;1.00;;;11.10;72.80;;;;;;649744;221;26751;-68
2022/06/14 03:30:39;;;;;;;2.55;1.10;;;11.10;72.60;;;;;;649669;221;26503;-68
2022/06/14 03:33:22;;;;;;;2.22;0.90;;;11.10;72.60;;;;;;649399;221;26519;-68
2022/06/14 03:35:47;;;;;;;2.60;1.00;;;11.20;72.80;;;;;;650809;219;26603;-68
2022/06/14 03:38:31;;;;;;;3.95;1.45;;;11.20;72.70;;;;;;650873;221;26767;-69
2022/06/14 03:40:58;;;;;;;4.05;1.23;;;11.20;72.90;;;;;;650733;220;27243;-69
2022/06/14 03:43:25;;;;;;;1.45;1.10;;;11.20;73.00;;;;;;650483;221;26577;-69
2022/06/14 03:45:59;;;;;;;4.43;1.17;;;11.30;73.00;;;;;;650236;221;26775;-69
2022/06/14 03:48:26;;;;;;;2.70;1.12;;;11.30;73.30;;;;;;650143;221;26886;-68
2022/06/14 03:50:56;;;;;;;1.80;1.15;;;11.30;73.20;;;;;;650146;220;26528;-69
2022/06/14 03:53:51;;;;;;;2.05;1.02;;;11.30;73.00;;;;;;649615;221;26485;-69
2022/06/14 03:56:23;;;;;;;1.98;1.15;;;11.40;73.10;;;;;;647117;221;26774;-69
2022/06/14 03:59:10;;;;;;;2.30;1.00;;;11.40;73.10;;;;;;649302;221;26599;-69
2022/06/14 04:01:39;;;;;;;3.08;1.08;;;11.30;73.10;;;;;;649337;221;26601;-69
2022/06/14 04:04:07;;;;;;;4.55;1.08;;;11.30;73.30;;;;;;649783;221;26565;-69
2022/06/14 04:07:13;;;;;;;2.22;1.08;;;11.30;73.30;;;;;;649727;221;26782;-67
2022/06/14 04:10:02;;;;;;;1.75;1.00;;;11.40;73.30;;;;;;646390;221;26587;-67
2022/06/14 04:12:33;;;;;;;1.58;1.08;;;11.40;73.20;;;;;;649256;221;26492;-67
2022/06/14 04:15:07;;;;;;;2.25;1.20;;;11.50;72.80;;;;;;649298;221;26775;-67
2022/06/14 04:17:42;;;;;;;1.58;1.00;;;11.60;72.60;;;;;;649161;217;26528;-67
2022/06/14 04:20:24;;;;;;;1.33;1.23;;;11.60;72.30;;;;;;649548;221;26708;-67
2022/06/14 04:23:09;;;;;;;1.15;0.80;;;11.50;72.10;;;;;;649793;220;26520;-67
2022/06/14 04:25:37;;;;;;;1.40;1.15;;;11.50;72.10;;;;;;649247;220;26730;-67
2022/06/14 04:28:14;;;;;;;1.10;1.00;;;11.60;72.00;;;;;;649270;221;26542;-67
2022/06/14 04:30:41;;;;;;;2.22;1.08;;;11.70;72.10;;;;;;649524;221;26862;-67
2022/06/14 04:33:12;;;;;;;1.55;1.10;;;11.80;71.60;;;;;;649551;221;26487;-67
2022/06/14 04:35:41;;;;;;;2.30;1.30;;;11.90;70.60;;;;;;649727;221;26520;-67
2022/06/14 04:38:08;;;;;;;2.62;1.25;;;12.10;70.50;;;;;;649718;221;26549;-67
2022/06/14 04:40:37;;;;;;;1.67;1.00;;;12.30;69.80;;;;;;649740;221;26521;-67
2022/06/14 04:43:14;;;;;;;1.10;1.00;;;12.40;69.00;;;;;;649442;221;26747;-67
2022/06/14 04:45:58;;;;;;;1.77;1.20;;;12.40;69.00;;;;;;649563;221;26488;-67
2022/06/14 04:48:27;;;;;;;1.62;1.10;;;12.40;68.70;;;;;;651307;220;26932;-66
2022/06/14 04:50:54;;;;;;;2.78;1.37;;;12.40;68.20;;;;;;650489;221;26772;-67
2022/06/14 04:53:24;;;;;;;2.30;1.30;;;12.60;68.00;;;;;;650333;220;26529;-67
2022/06/14 04:55:54;;;;;;;1.75;1.15;;;12.60;67.70;;;;;;650260;221;26529;-67
2022/06/14 04:58:21;;;;;;;1.83;1.08;;;12.70;66.60;;;;;;650058;221;26556;-67
2022/06/14 05:00:50;;;;;;;2.33;1.17;;;12.60;66.70;;;;;;650202;221;26856;-66
2022/06/14 05:03:23;;;;;;;1.30;1.20;;;12.50;66.40;;;;;;650109;221;26534;-67
2022/06/14 05:05:50;;;;;;;3.03;1.20;;;12.50;66.80;;;;;;649829;221;26581;-67
2022/06/14 05:08:23;;;;;;;3.33;1.35;;;12.50;66.10;;;;;;649747;221;26791;-66
2022/06/14 05:10:50;;;;;;;2.65;1.37;;;12.70;65.70;;;;;;649872;220;26760;-67
2022/06/14 05:13:19;;;;;;;1.60;1.48;;;12.80;65.30;;;;;;649720;221;26552;-67
2022/06/14 05:15:47;;;;;;;2.50;1.37;;;12.70;65.50;;;;;;649645;221;26589;-67
2022/06/14 05:18:30;;;;;;;3.10;1.58;;;12.60;65.90;;;;;;649705;221;26596;-66
2022/06/14 05:21:05;;;;;;;1.17;1.00;;;12.60;65.90;;;;;;649863;220;26815;-67
2022/06/14 05:23:34;;;;;;;2.65;1.40;;;12.70;65.90;;;;;;649429;221;26503;-67
2022/06/14 05:26:20;;;;;;;2.50;1.33;;;12.70;65.80;;;;;;649339;221;26507;-67
2022/06/14 05:28:56;;;;;;;3.08;1.50;;;12.80;65.50;;;;;;650185;217;26581;-67
2022/06/14 05:31:28;;;;;;;1.52;1.25;;;12.90;64.80;;;;;;647837;221;26511;-66
2022/06/14 05:34:03;;;;;;;2.72;1.17;;;12.90;64.80;;;;;;649489;221;26524;-66
2022/06/14 05:36:31;;;;;;;1.30;1.17;;;13.10;64.20;;;;;;649527;221;26518;-66
2022/06/14 05:38:59;;;;;;;2.70;1.30;;;13.10;64.30;;;;;;649461;221;26789;-66
2022/06/14 05:41:33;;;;;;;4.47;1.70;;;13.10;64.40;;;;;;649451;221;26520;-66
2022/06/14 05:44:17;;;;;;;3.33;1.60;;;13.40;64.00;;;;;;649538;221;26512;-66
2022/06/14 05:46:46;;;;;;;3.03;1.45;;;13.60;63.20;;;;;;650231;220;26539;-66
2022/06/14 05:49:14;;;;;;;2.87;1.40;;;13.50;63.10;;;;;;649358;221;26888;-66
2022/06/14 05:51:48;;;;;;;2.35;1.27;;;13.70;62.80;;;;;;649341;221;26520;-67
2022/06/14 05:54:18;;;;;;;1.95;1.52;;;13.70;63.00;;;;;;649461;221;26511;-67
2022/06/14 05:56:46;;;;;;;3.05;1.45;;;13.60;62.90;;;;;;649314;221;26523;-67
2022/06/14 05:59:17;;;;;;;4.57;1.65;;;13.60;63.10;;;;;;650829;219;26598;-66
2022/06/14 06:01:44;;;;;;;2.40;1.48;;;13.50;63.60;;;;;;650726;221;26567;-67
2022/06/14 06:04:18;;;;;;;1.83;1.30;;;13.70;63.20;;;;;;650420;221;26592;-67
2022/06/14 06:06:45;;;;;;;2.40;1.40;;;13.70;63.20;;;;;;650851;221;26594;-67
2022/06/14 06:09:13;;;;;;;2.03;1.27;;;13.90;62.30;;;;;;650531;221;26527;-66
2022/06/14 06:11:41;;;;;;;3.50;1.55;;;13.90;62.20;;;;;;649959;221;26505;-67
2022/06/14 06:14:11;;;;;;;3.53;1.30;;;13.90;61.80;;;;;;649951;221;26503;-66
2022/06/14 06:16:51;;;;;;;1.45;1.20;;;14.10;61.60;;;;;;649901;221;26579;-67
2022/06/14 06:19:20;;;;;;;5.07;1.37;;;14.30;60.90;;;;;;649653;220;26878;-67
2022/06/14 06:21:49;;;;;;;3.53;1.48;;;14.60;60.10;;;;;;649551;221;26577;-66
2022/06/14 06:24:16;;;;;;;3.53;1.80;;;14.80;59.40;;;;;;649762;221;26807;-66
2022/06/14 06:26:44;;;;;;;2.70;1.40;;;14.80;58.90;;;;;;649735;221;26820;-66
2022/06/14 06:29:11;;;;;;;2.12;1.30;;;14.70;58.90;;;;;;649688;221;26600;-67
2022/06/14 06:31:38;;;;;;;3.37;1.40;;;14.40;59.00;;;;;;649737;221;26785;-67
2022/06/14 06:34:06;;;;;;;1.92;1.30;;;14.60;59.50;;;;;;649740;221;26515;-67
2022/06/14 06:36:35;;;;;;;5.05;1.45;;;14.70;59.30;;;;;;649451;220;26517;-67
2022/06/14 06:39:08;;;;;;;3.25;1.20;;;14.60;59.20;;;;;;649193;220;26520;-66
2022/06/14 06:44:08;;;;;;;1.67;1.35;;;15.20;58.00;;;;;;649523;221;26787;-66
2022/06/14 06:46:36;;;;;;;4.65;1.77;;;15.40;57.20;;;;;;649559;221;26714;-66
2022/06/14 06:49:03;;;;;;;3.40;1.52;;;15.50;57.20;;;;;;647345;221;26739;-66
2022/06/14 06:51:34;;;;;;;4.05;1.75;;;15.40;57.20;;;;;;641249;221;26555;-66
2022/06/14 06:53:57;;;;;;;3.37;1.60;;;15.30;57.40;;;;;;642887;221;26783;-66
2022/06/14 06:56:25;;;;;;;4.57;1.50;;;15.60;56.90;;;;;;649694;221;26589;-66
2022/06/14 06:58:56;;;;;;;1.87;1.30;;;15.60;56.70;;;;;;650369;221;26825;-67
2022/06/14 07:01:25;;;;;;;3.08;1.48;;;15.90;56.10;;;;;;645249;221;26569;-66
2022/06/14 07:03:59;;;;;;;3.62;1.67;;;15.80;56.00;;;;;;642303;221;26573;-67
2022/06/14 07:06:26;;;;;;;2.35;1.35;;;15.90;55.90;;;;;;642034;221;26584;-67
2022/06/14 07:08:55;;;;;;;3.00;1.20;;;15.80;55.80;;;;;;637820;223;26774;-67
2022/06/14 07:11:21;;;;;;;4.45;1.27;;;15.50;55.70;;;;;;651576;220;26536;-67
2022/06/14 07:13:53;;;;;;;4.07;1.50;;;15.50;56.20;;;;;;652260;220;26490;-66
2022/06/14 07:16:21;;;;;;;4.43;1.40;;;15.90;56.00;;;;;;635821;225;26798;-67
2022/06/14 07:18:51;;;;;;;3.67;1.90;;;16.20;55.10;;;;;;641200;220;27022;-66
2022/06/14 07:21:19;;;;;;;3.65;1.70;;;16.10;54.70;;;;;;639529;220;26747;-66
2022/06/14 07:23:52;;;;;;;4.30;1.50;;;15.80;55.00;;;;;;642478;221;26797;-66
2022/06/14 07:26:26;;;;;;;4.00;1.42;;;15.60;55.10;;;;;;644542;221;26825;-67
2022/06/14 07:29:12;;;;;;;2.42;1.45;;;15.50;55.00;;;;;;644657;221;26531;-67
2022/06/14 07:31:45;;;;;;;5.40;2.35;;;16.20;54.00;;;;;;640630;220;26582;-67
2022/06/14 07:34:12;;;;;;;5.97;2.03;;;16.20;54.00;;;;;;644797;221;26570;-67
2022/06/14 07:36:56;;;;;;;4.78;2.28;;;16.00;53.90;;;;;;645843;221;26910;-67
2022/06/14 07:39:23;;;;;;;4.00;2.20;;;16.10;54.00;;;;;;638222;221;26595;-65
2022/06/14 07:42:01;;;;;;;4.65;2.20;;;16.10;53.90;;;;;;638236;225;26890;-66
2022/06/14 07:44:31;;;;;;;2.97;1.52;;;16.20;53.70;;;;;;642237;222;26591;-68
2022/06/14 07:47:04;;;;;;;4.37;1.70;;;16.00;53.90;;;;;;639285;221;26511;-68
2022/06/14 07:49:34;;;;;;;3.33;1.77;;;16.00;54.30;;;;;;638438;225;26643;-69
2022/06/14 07:52:01;;;;;;;3.22;1.80;;;15.90;53.70;;;;;;637087;225;26544;-69
2022/06/14 07:54:30;;;;;;;3.87;2.40;;;16.50;52.90;;;;;;637955;224;26479;-69
2022/06/14 07:57:00;;;;;;;4.78;2.28;;;16.50;52.90;;;;;;639001;221;26745;-69
2022/06/14 07:59:29;;;;;;;4.90;2.17;;;16.50;53.00;;;;;;638017;221;26599;-69
2022/06/14 08:02:09;;;;;;;3.62;1.98;;;16.50;52.50;;;;;;637340;222;26532;-69
2022/06/14 08:04:36;;;;;;;3.60;1.90;;;16.30;52.70;;;;;;638388;225;26791;-69
2022/06/14 08:07:06;;;;;;;6.00;1.95;;;16.70;52.30;;;;;;647653;221;26600;-69
2022/06/14 08:09:35;;;;;;;3.05;1.80;;;16.40;52.60;;;;;;652349;217;26598;-69
2022/06/14 08:12:06;;;;;;;4.90;1.83;;;16.30;52.30;;;;;;645499;221;26570;-69
2022/06/14 08:14:39;;;;;;;5.78;2.03;;;16.30;52.30;;;;;;645331;221;26548;-69
2022/06/14 08:17:08;;;;;;;3.60;1.77;;;16.40;52.20;;;;;;641280;221;27094;-66
2022/06/14 08:19:36;;;;;;;4.37;1.80;;;16.50;51.50;;;;;;649390;221;26516;-65
2022/06/14 08:22:05;;;;;;;12.20;2.53;;;16.70;51.10;;;;;;639168;223;26475;-66
2022/06/14 08:24:35;;;;;;;4.32;1.98;;;16.50;50.90;;;;;;640395;224;27001;-69
2022/06/14 08:27:03;;;;;;;3.12;1.70;;;16.40;50.70;;;;;;638946;224;26544;-68
2022/06/14 08:29:51;;;;;;;2.53;2.00;;;16.70;50.60;;;;;;639878;224;26799;-69
2022/06/14 08:32:24;;;;;;;5.37;2.20;;;17.00;50.00;;;;;;639460;224;26799;-69
2022/06/14 08:34:54;;;;;;;4.35;1.90;;;17.20;49.10;;;;;;648182;221;26525;-65
2022/06/14 08:37:25;;;;;;;3.03;1.30;;;17.00;48.70;;;;;;650311;221;26517;-65
2022/06/14 08:40:03;;;;;;;2.78;1.60;;;17.00;48.70;;;;;;642211;221;26610;-65
2022/06/14 08:42:31;;;;;;;3.35;1.98;;;17.30;48.10;;;;;;643213;221;26795;-66
2022/06/14 08:44:58;;;;;;;4.62;1.83;;;17.20;47.90;;;;;;639118;225;26585;-69
2022/06/14 08:48:01;;;;;;;3.17;1.67;;;17.40;48.60;;;;;;649814;221;26756;-69
2022/06/14 08:50:29;;;;;;;5.10;1.98;;;17.60;48.40;;;;;;633961;221;26831;-70
2022/06/14 08:53:17;;;;;;;4.35;1.83;;;17.60;48.30;;;;;;647230;221;26550;-71
2022/06/14 08:55:50;;;;;;;4.20;1.67;;;17.30;47.80;;;;;;636407;225;26874;-70
2022/06/14 08:58:51;;;;;;;3.00;1.70;;;16.70;46.80;;;;;;643745;221;26536;-66
2022/06/14 09:01:19;;;;;;;5.32;1.45;;;16.70;46.80;;;;;;631648;225;26825;-66
2022/06/14 09:03:59;;;;;;;2.55;1.73;;;16.40;47.00;;;;;;636236;225;26516;-70
2022/06/14 09:06:41;;;;;;;2.42;1.23;;;16.40;47.20;;;;;;637788;225;26770;-71
2022/06/14 09:09:18;;;;;;;5.50;1.83;;;16.60;47.20;;;;;;636189;223;26616;-72
2022/06/14 09:12:10;;;;;;;2.87;1.55;;;17.00;47.30;;;;;;649012;220;26566;-73
2022/06/14 09:15:16;;;;;;;3.03;1.50;;;17.00;46.90;;;;;;633254;226;26804;-71
2022/06/14 09:17:51;;;;;;;2.00;1.40;;;17.10;46.60;;;;;;646102;221;26596;-72
2022/06/14 09:20:27;;;;;;;3.15;1.27;;;17.40;45.70;;;;;;643339;221;26504;-69
2022/06/14 09:23:00;;;;;;;7.87;1.73;;;17.50;45.80;;;;;;637301;225;26714;-69
2022/06/14 09:25:32;;;;;;;3.75;1.60;;;17.90;45.30;;;;;;637276;224;26512;-69
2022/06/14 09:28:06;;;;;;;2.92;1.60;;;17.80;45.30;;;;;;641863;218;26819;-71
2022/06/14 09:30:40;;;;;;;4.20;1.70;;;18.00;44.60;;;;;;643163;221;26590;-67
2022/06/14 09:33:26;;;;;;;56.33;9.73;;;18.30;44.50;;;;;;638331;221;26511;-72
2022/06/14 09:36:03;;;;;;;109.80;17.65;;;18.60;43.80;;;;;;638746;224;26583;-72
2022/06/14 09:38:41;;;;;;;91.25;20.17;;;18.50;43.70;;;;;;640242;224;26517;-72
2022/06/14 09:41:11;;;;;;;115.55;20.65;;;18.50;43.40;;;;;;639500;224;26537;-71
2022/06/14 09:43:42;;;;;;;92.37;16.73;;;18.40;43.50;;;;;;651567;220;26733;-67
2022/06/14 09:46:16;;;;;;;64.50;13.95;;;18.30;43.70;;;;;;642261;221;26566;-67
2022/06/14 09:49:08;;;;;;;49.90;11.10;;;18.30;43.80;;;;;;646257;221;26799;-67
2022/06/14 09:51:54;;;;;;;39.65;9.52;;;18.00;45.00;;;;;;643896;221;26592;-67
2022/06/14 09:55:01;;;;;;;38.60;8.38;;;17.60;46.00;;;;;;637167;225;26790;-67
2022/06/14 09:57:54;;;;;;;33.30;8.32;;;17.60;46.00;;;;;;638618;221;26594;-67
2022/06/14 10:00:27;;;;;;;26.40;6.37;;;17.70;46.90;;;;;;638004;225;26837;-67
2022/06/14 10:03:06;;;;;;;25.62;6.78;;;17.70;46.10;;;;;;637577;224;26535;-67
2022/06/14 10:06:01;;;;;;;14.60;4.93;;;17.40;46.30;;;;;;646063;222;26782;-67
2022/06/14 10:08:53;;;;;;;15.63;3.83;;;18.10;46.00;;;;;;637350;225;26629;-68
2022/06/14 10:11:32;;;;;;;13.95;3.45;;;18.00;45.90;;;;;;649324;221;26556;-68
2022/06/14 10:14:18;;;;;;;13.40;3.72;;;18.20;45.80;;;;;;650790;221;26779;-69
2022/06/14 10:16:52;;;;;;;11.77;3.20;;;18.10;45.50;;;;;;649489;221;27213;-68
2022/06/14 10:19:22;;;;;;;11.40;2.62;;;18.70;45.10;;;;;;639863;221;26547;-69
2022/06/14 10:22:06;;;;;;;11.50;3.00;;;18.70;45.10;;;;;;637785;225;26563;-68
2022/06/14 10:24:35;;;;;;;14.68;3.60;;;18.60;45.00;;;;;;638697;224;26520;-68
2022/06/14 10:30:09;;;;;;;7.25;2.40;;;19.10;44.30;;;;;;646544;221;26638;-69
2022/06/14 10:32:58;;;;;;;6.75;2.28;;;19.30;43.20;;;;;;638081;224;27185;-68
2022/06/14 10:35:28;;;;;;;5.72;1.95;;;19.40;43.60;;;;;;638201;224;26758;-68
2022/06/14 10:37:56;;;;;;;6.05;1.65;;;19.50;43.60;;;;;;638209;225;26587;-68
2022/06/14 10:40:53;;;;;;;9.90;2.33;;;20.20;43.40;;;;;;636816;224;26559;-68
2022/06/14 10:43:25;;;;;;;4.47;1.80;;;19.90;42.80;;;;;;648587;221;26564;-68
2022/06/14 10:45:55;;;;;;;6.55;1.83;;;19.90;42.80;;;;;;639122;223;26572;-68
2022/06/14 10:48:42;;;;;;;4.03;1.35;;;19.70;42.90;;;;;;639636;223;26543;-68
2022/06/14 10:51:17;;;;;;;5.20;1.92;;;19.90;42.70;;;;;;636217;225;26973;-68
2022/06/14 10:53:47;;;;;;;6.30;1.87;;;19.50;42.90;;;;;;642316;221;26764;-68
2022/06/14 10:56:18;;;;;;;4.62;1.85;;;18.90;43.30;;;;;;650636;221;26761;-68
2022/06/14 10:58:48;;;;;;;4.30;1.55;;;19.20;43.30;;;;;;642900;221;26518;-68
2022/06/14 11:01:23;;;;;;;4.82;1.65;;;19.60;43.30;;;;;;638316;221;26558;-68
2022/06/14 11:03:54;;;;;;;5.97;1.80;;;20.20;42.60;;;;;;637714;224;26568;-67
2022/06/14 11:06:27;;;;;;;3.25;1.73;;;20.80;42.50;;;;;;638431;224;26565;-68
2022/06/14 11:09:05;;;;;;;6.37;1.52;;;20.90;41.60;;;;;;638843;224;26600;-68
2022/06/14 11:11:35;;;;;;;4.55;1.33;;;20.10;42.00;;;;;;647045;221;26554;-68
2022/06/14 11:14:12;;;;;;;5.12;1.50;;;20.00;42.00;;;;;;645051;221;26519;-68
2022/06/14 11:16:49;;;;;;;3.83;1.40;;;19.90;41.80;;;;;;643039;222;26504;-69
2022/06/14 11:19:39;;;;;;;3.37;1.37;;;19.90;42.70;;;;;;637741;222;26612;-68
2022/06/14 11:22:42;;;;;;;3.12;1.50;;;20.10;42.50;;;;;;637153;221;26814;-68
2022/06/14 11:25:15;;;;;;;4.95;1.60;;;19.70;43.00;;;;;;640244;221;26515;-68
2022/06/14 11:27:50;;;;;;;3.00;1.30;;;19.70;43.40;;;;;;650538;221;26566;-68
2022/06/14 11:30:21;;;;;;;2.58;1.30;;;19.70;43.40;;;;;;644522;221;27236;-68
2022/06/14 11:33:11;;;;;;;3.80;1.20;;;20.00;43.50;;;;;;637763;224;26725;-68
2022/06/14 11:35:58;;;;;;;2.05;1.17;;;19.70;43.60;;;;;;637765;225;26519;-69
2022/06/14 11:38:28;;;;;;;2.97;1.55;;;19.70;43.60;;;;;;641127;218;26594;-69
2022/06/14 11:40:58;;;;;;;2.90;1.48;;;19.80;43.30;;;;;;640539;221;26511;-67
2022/06/14 11:43:47;;;;;;;4.50;1.40;;;19.80;42.90;;;;;;638349;224;26554;-70
2022/06/14 11:46:22;;;;;;;4.80;1.65;;;20.10;42.50;;;;;;638471;225;26576;-71
2022/06/14 11:48:55;;;;;;;4.10;1.75;;;19.60;42.60;;;;;;638757;225;26553;-71
2022/06/14 11:51:26;;;;;;;3.45;1.37;;;19.40;42.70;;;;;;638808;224;26569;-71
2022/06/14 11:54:14;;;;;;;4.05;1.37;;;19.50;42.50;;;;;;637985;222;26812;-71
2022/06/14 11:56:58;;;;;;;3.55;1.30;;;20.00;41.90;;;;;;639559;223;26577;-72
2022/06/14 11:59:49;;;;;;;1.87;1.10;;;20.00;41.50;;;;;;631155;224;26634;-72
2022/06/14 12:02:42;;;;;;;1.85;1.00;;;20.00;41.50;;;;;;638659;225;26576;-72
2022/06/14 12:05:16;;;;;;;3.70;1.42;;;20.00;42.10;;;;;;639818;225;26806;-72
2022/06/14 12:07:46;;;;;;;4.80;1.60;;;19.60;42.60;;;;;;639515;224;26537;-72
2022/06/14 12:10:17;;;;;;;2.33;1.25;;;19.60;42.60;;;;;;639315;221;26479;-72
2022/06/14 12:13:02;;;;;;;2.83;1.10;;;19.60;42.60;;;;;;638446;224;26513;-71
2022/06/14 12:15:42;;;;;;;2.65;1.33;;;19.60;42.70;;;;;;630950;224;26809;-72
2022/06/14 12:18:09;;;;;;;3.12;1.30;;;19.30;42.70;;;;;;639212;224;27161;-72
2022/06/14 12:20:36;;;;;;;3.10;1.37;;;19.40;43.30;;;;;;639374;222;26495;-72
2022/06/14 12:23:19;;;;;;;2.58;1.00;;;19.80;43.00;;;;;;638782;224;26755;-71
2022/06/14 12:28:43;;;;;;;2.58;1.12;;;20.90;42.50;;;;;;648478;221;26543;-72
2022/06/14 12:31:14;;;;;;;3.58;1.20;;;21.30;40.40;;;;;;639622;221;26571;-71
2022/06/14 12:33:41;;;;;;;2.53;1.10;;;22.00;39.80;;;;;;647987;219;26822;-73
2022/06/14 12:36:15;;;;;;;3.33;1.25;;;22.30;39.20;;;;;;637430;225;26574;-72
2022/06/14 12:38:42;;;;;;;4.95;1.27;;;22.30;39.00;;;;;;638334;224;26926;-72
2022/06/14 12:41:12;;;;;;;3.03;0.98;;;21.80;39.30;;;;;;638435;222;26511;-70
2022/06/14 12:43:47;;;;;;;4.00;1.27;;;20.80;40.10;;;;;;644530;221;26575;-73
2022/06/14 12:46:14;;;;;;;3.65;1.30;;;20.80;40.10;;;;;;636513;225;26530;-72
2022/06/14 12:48:47;;;;;;;2.55;0.85;;;20.70;40.30;;;;;;637510;225;26820;-72
2022/06/14 12:51:18;;;;;;;3.53;1.30;;;21.40;40.00;;;;;;638419;224;26511;-72
2022/06/14 12:53:47;;;;;;;3.53;1.33;;;21.40;40.00;;;;;;638756;224;26789;-72
2022/06/14 12:56:17;;;;;;;4.40;1.48;;;21.10;39.80;;;;;;641853;221;26540;-73
2022/06/14 12:58:48;;;;;;;5.65;1.30;;;21.00;39.50;;;;;;643458;221;26524;-77
2022/06/14 13:01:32;;;;;;;4.22;1.35;;;21.00;39.50;;;;;;638280;225;26559;-74
2022/06/14 13:04:00;;;;;;;3.12;1.37;;;21.30;39.90;;;;;;637465;225;26577;-70
2022/06/14 13:06:37;;;;;;;2.55;1.23;;;21.60;39.70;;;;;;642996;221;26655;-69
2022/06/14 13:09:06;;;;;;;3.22;1.40;;;22.50;39.00;;;;;;643225;219;26766;-70
2022/06/14 13:11:41;;;;;;;6.07;1.40;;;22.40;39.00;;;;;;638898;224;26558;-72
2022/06/14 13:14:09;;;;;;;3.47;1.50;;;23.70;38.30;;;;;;641529;222;26542;-72
2022/06/14 13:16:42;;;;;;;3.60;1.25;;;24.40;36.80;;;;;;649047;221;26567;-72
2022/06/14 13:19:33;;;;;;;2.70;1.15;;;26.60;36.90;;;;;;641367;221;26821;-75
2022/06/14 13:22:05;;;;;;;3.75;1.33;;;26.90;34.50;;;;;;649102;220;26576;-72
2022/06/14 13:24:49;;;;;;;3.67;0.90;;;26.70;34.10;;;;;;638108;223;26603;-71
2022/06/14 13:27:38;;;;;;;4.00;1.05;;;26.30;34.10;;;;;;643179;221;26840;-72
2022/06/14 13:30:09;;;;;;;2.37;1.05;;;26.10;34.10;;;;;;650986;220;27240;-71
2022/06/14 13:32:52;;;;;;;4.75;1.20;;;23.90;34.70;;;;;;650737;221;26525;-74
2022/06/14 13:35:26;;;;;;;1.87;1.40;;;23.80;34.70;;;;;;650632;221;27145;-71